Terminal Aerodrome Forecast
Issued by NWS Upton, NY

Home | Current Version | Previous Version | Text Only | Print | Product List | Glossary On
Versions: 1 2 3 4 5 6 7 8 9 10 11 12 13 14 15 16 17 18 19 20 21 22 23 24 25 26 27 28 29 30 31
840
FTUS41 KOKX 310541
TAFISP
TAF
KISP 310541Z 3106/0106 13006KT 6SM BR SCT015 BKN100
     FM311000 13008KT 4SM SHRA BR OVC010
     FM311700 13010KT 5SM -SHRA BR BKN015
     FM312100 11009KT 5SM BR SCT008 BKN015
     FM010000 08007KT 3SM BR OVC007=

USA.gov is the U.S. government's official web portal to all federal, state and local government web resources and services.